sensor_id;sensor_type;location;lat;lon;timestamp;P1;durP1;ratioP1;P2;durP2;ratioP2
60588;SDS011;46421;48.610;9.334;2023-02-22T00:00:12;7.25;;;2.95;;
60588;SDS011;46421;48.610;9.334;2023-02-22T00:02:58;7.35;;;3.28;;
60588;SDS011;46421;48.610;9.334;2023-02-22T00:05:24;6.73;;;2.90;;
60588;SDS011;46421;48.610;9.334;2023-02-22T00:07:52;5.97;;;2.97;;
60588;SDS011;46421;48.610;9.334;2023-02-22T00:10:21;8.35;;;3.10;;
60588;SDS011;46421;48.610;9.334;2023-02-22T00:15:15;7.85;;;2.97;;
60588;SDS011;46421;48.610;9.334;2023-02-22T00:17:44;6.05;;;2.85;;
60588;SDS011;46421;48.610;9.334;2023-02-22T00:20:10;5.90;;;2.90;;
60588;SDS011;46421;48.610;9.334;2023-02-22T00:22:41;8.63;;;2.75;;
60588;SDS011;46421;48.610;9.334;2023-02-22T00:25:10;7.10;;;2.90;;
60588;SDS011;46421;48.610;9.334;2023-02-22T00:30:03;5.43;;;2.67;;
60588;SDS011;46421;48.610;9.334;2023-02-22T00:34:55;6.45;;;2.65;;
60588;SDS011;46421;48.610;9.334;2023-02-22T00:37:20;7.67;;;3.00;;
60588;SDS011;46421;48.610;9.334;2023-02-22T00:39:49;8.00;;;2.87;;
60588;SDS011;46421;48.610;9.334;2023-02-22T00:42:15;8.20;;;3.13;;
60588;SDS011;46421;48.610;9.334;2023-02-22T00:47:08;8.20;;;2.72;;
60588;SDS011;46421;48.610;9.334;2023-02-22T00:49:33;5.40;;;2.72;;
60588;SDS011;46421;48.610;9.334;2023-02-22T00:51:59;9.93;;;3.53;;
60588;SDS011;46421;48.610;9.334;2023-02-22T00:54:25;6.10;;;2.55;;
60588;SDS011;46421;48.610;9.334;2023-02-22T00:56:50;5.55;;;2.35;;
60588;SDS011;46421;48.610;9.334;2023-02-22T00:59:16;10.10;;;2.78;;
60588;SDS011;46421;48.610;9.334;2023-02-22T01:01:41;5.10;;;2.30;;
60588;SDS011;46421;48.610;9.334;2023-02-22T01:04:07;6.78;;;2.75;;
60588;SDS011;46421;48.610;9.334;2023-02-22T01:06:32;4.80;;;2.45;;
60588;SDS011;46421;48.610;9.334;2023-02-22T01:08:58;6.28;;;2.92;;
60588;SDS011;46421;48.610;9.334;2023-02-22T01:11:23;7.50;;;3.03;;
60588;SDS011;46421;48.610;9.334;2023-02-22T01:13:49;8.38;;;3.08;;
60588;SDS011;46421;48.610;9.334;2023-02-22T01:16:18;7.43;;;3.13;;
60588;SDS011;46421;48.610;9.334;2023-02-22T01:18:43;5.65;;;2.92;;
60588;SDS011;46421;48.610;9.334;2023-02-22T01:21:09;5.93;;;2.70;;
60588;SDS011;46421;48.610;9.334;2023-02-22T01:23:34;5.97;;;2.53;;
60588;SDS011;46421;48.610;9.334;2023-02-22T01:26:00;6.57;;;3.05;;
60588;SDS011;46421;48.610;9.334;2023-02-22T01:28:26;8.45;;;2.58;;
60588;SDS011;46421;48.610;9.334;2023-02-22T01:30:53;5.78;;;2.72;;
60588;SDS011;46421;48.610;9.334;2023-02-22T01:33:20;6.43;;;2.83;;
60588;SDS011;46421;48.610;9.334;2023-02-22T01:35:45;7.43;;;2.70;;
60588;SDS011;46421;48.610;9.334;2023-02-22T01:38:11;5.65;;;2.53;;
60588;SDS011;46421;48.610;9.334;2023-02-22T01:40:39;6.78;;;2.30;;
60588;SDS011;46421;48.610;9.334;2023-02-22T01:43:18;6.78;;;2.78;;
60588;SDS011;46421;48.610;9.334;2023-02-22T01:48:16;6.78;;;2.17;;
60588;SDS011;46421;48.610;9.334;2023-02-22T01:50:59;5.50;;;1.98;;
60588;SDS011;46421;48.610;9.334;2023-02-22T01:53:32;6.55;;;2.42;;
60588;SDS011;46421;48.610;9.334;2023-02-22T01:56:01;4.65;;;2.20;;
60588;SDS011;46421;48.610;9.334;2023-02-22T01:58:27;8.85;;;2.35;;
60588;SDS011;46421;48.610;9.334;2023-02-22T02:00:56;6.03;;;2.42;;
60588;SDS011;46421;48.610;9.334;2023-02-22T02:03:23;6.80;;;2.70;;
60588;SDS011;46421;48.610;9.334;2023-02-22T02:05:52;6.07;;;2.53;;
60588;SDS011;46421;48.610;9.334;2023-02-22T02:08:30;6.95;;;2.83;;
60588;SDS011;46421;48.610;9.334;2023-02-22T02:11:20;7.00;;;2.53;;
60588;SDS011;46421;48.610;9.334;2023-02-22T02:16:14;7.28;;;2.65;;
60588;SDS011;46421;48.610;9.334;2023-02-22T02:18:40;8.40;;;2.60;;
60588;SDS011;46421;48.610;9.334;2023-02-22T02:27:01;5.22;;;2.13;;
60588;SDS011;46421;48.610;9.334;2023-02-22T02:32:54;6.20;;;2.55;;
60588;SDS011;46421;48.610;9.334;2023-02-22T02:35:36;5.78;;;2.28;;
60588;SDS011;46421;48.610;9.334;2023-02-22T02:38:32;6.75;;;2.55;;
60588;SDS011;46421;48.610;9.334;2023-02-22T02:43:58;5.38;;;2.33;;
60588;SDS011;46421;48.610;9.334;2023-02-22T02:48:58;5.82;;;2.45;;
60588;SDS011;46421;48.610;9.334;2023-02-22T02:53:55;8.50;;;2.30;;
60588;SDS011;46421;48.610;9.334;2023-02-22T02:56:21;7.43;;;2.65;;
60588;SDS011;46421;48.610;9.334;2023-02-22T02:58:51;7.07;;;2.65;;
60588;SDS011;46421;48.610;9.334;2023-02-22T03:01:34;5.00;;;2.05;;
60588;SDS011;46421;48.610;9.334;2023-02-22T03:04:34;5.00;;;2.10;;
60588;SDS011;46421;48.610;9.334;2023-02-22T03:07:25;5.85;;;2.10;;
60588;SDS011;46421;48.610;9.334;2023-02-22T03:10:44;8.82;;;2.45;;
60588;SDS011;46421;48.610;9.334;2023-02-22T03:21:24;5.25;;;2.20;;
60588;SDS011;46421;48.610;9.334;2023-02-22T03:26:33;5.72;;;2.33;;
60588;SDS011;46421;48.610;9.334;2023-02-22T03:29:03;5.30;;;2.05;;
60588;SDS011;46421;48.610;9.334;2023-02-22T03:31:33;6.88;;;2.83;;
60588;SDS011;46421;48.610;9.334;2023-02-22T03:34:13;6.60;;;2.17;;
60588;SDS011;46421;48.610;9.334;2023-02-22T03:36:53;4.90;;;2.08;;
60588;SDS011;46421;48.610;9.334;2023-02-22T03:39:24;4.55;;;1.95;;
60588;SDS011;46421;48.610;9.334;2023-02-22T03:41:55;3.92;;;2.08;;
60588;SDS011;46421;48.610;9.334;2023-02-22T03:44:26;6.80;;;2.50;;
60588;SDS011;46421;48.610;9.334;2023-02-22T03:46:55;4.40;;;2.00;;
60588;SDS011;46421;48.610;9.334;2023-02-22T03:49:31;5.18;;;2.13;;
60588;SDS011;46421;48.610;9.334;2023-02-22T03:52:04;6.50;;;2.33;;
60588;SDS011;46421;48.610;9.334;2023-02-22T03:54:31;5.38;;;2.53;;
60588;SDS011;46421;48.610;9.334;2023-02-22T03:57:13;6.22;;;2.40;;
60588;SDS011;46421;48.610;9.334;2023-02-22T03:59:44;5.78;;;2.40;;
60588;SDS011;46421;48.610;9.334;2023-02-22T04:02:10;5.38;;;2.15;;
60588;SDS011;46421;48.610;9.334;2023-02-22T04:04:36;5.60;;;2.20;;
60588;SDS011;46421;48.610;9.334;2023-02-22T04:07:01;7.00;;;2.42;;
60588;SDS011;46421;48.610;9.334;2023-02-22T04:09:27;6.95;;;2.05;;
60588;SDS011;46421;48.610;9.334;2023-02-22T04:11:52;5.97;;;2.78;;
60588;SDS011;46421;48.610;9.334;2023-02-22T04:14:18;6.72;;;2.63;;
60588;SDS011;46421;48.610;9.334;2023-02-22T04:16:43;7.67;;;2.67;;
60588;SDS011;46421;48.610;9.334;2023-02-22T04:19:09;6.15;;;2.40;;
60588;SDS011;46421;48.610;9.334;2023-02-22T04:21:34;5.45;;;2.17;;
60588;SDS011;46421;48.610;9.334;2023-02-22T04:24:00;5.40;;;2.05;;
60588;SDS011;46421;48.610;9.334;2023-02-22T04:26:25;5.55;;;2.40;;
60588;SDS011;46421;48.610;9.334;2023-02-22T04:28:50;5.27;;;1.80;;
60588;SDS011;46421;48.610;9.334;2023-02-22T04:31:16;5.47;;;2.08;;
60588;SDS011;46421;48.610;9.334;2023-02-22T04:33:41;6.03;;;2.25;;
60588;SDS011;46421;48.610;9.334;2023-02-22T04:36:07;6.47;;;2.55;;
60588;SDS011;46421;48.610;9.334;2023-02-22T04:38:34;6.80;;;2.03;;
60588;SDS011;46421;48.610;9.334;2023-02-22T04:41:00;5.85;;;2.05;;
60588;SDS011;46421;48.610;9.334;2023-02-22T04:43:25;7.43;;;2.57;;
60588;SDS011;46421;48.610;9.334;2023-02-22T04:45:50;4.75;;;2.13;;
60588;SDS011;46421;48.610;9.334;2023-02-22T04:48:16;6.13;;;2.13;;
60588;SDS011;46421;48.610;9.334;2023-02-22T04:50:41;4.27;;;1.83;;
60588;SDS011;46421;48.610;9.334;2023-02-22T04:53:06;7.30;;;2.15;;
60588;SDS011;46421;48.610;9.334;2023-02-22T04:55:32;5.00;;;2.20;;
60588;SDS011;46421;48.610;9.334;2023-02-22T04:57:58;5.25;;;2.40;;
60588;SDS011;46421;48.610;9.334;2023-02-22T05:00:23;5.43;;;2.30;;
60588;SDS011;46421;48.610;9.334;2023-02-22T05:02:49;6.63;;;2.30;;
60588;SDS011;46421;48.610;9.334;2023-02-22T05:05:18;6.22;;;2.55;;
60588;SDS011;46421;48.610;9.334;2023-02-22T05:07:45;8.70;;;2.35;;
60588;SDS011;46421;48.610;9.334;2023-02-22T05:10:14;4.38;;;1.75;;
60588;SDS011;46421;48.610;9.334;2023-02-22T05:12:39;4.22;;;2.15;;
60588;SDS011;46421;48.610;9.334;2023-02-22T05:15:06;5.17;;;2.00;;
60588;SDS011;46421;48.610;9.334;2023-02-22T05:17:32;4.78;;;2.08;;
60588;SDS011;46421;48.610;9.334;2023-02-22T05:19:58;4.25;;;1.83;;
60588;SDS011;46421;48.610;9.334;2023-02-22T05:22:23;6.10;;;2.17;;
60588;SDS011;46421;48.610;9.334;2023-02-22T05:24:49;5.00;;;1.60;;
60588;SDS011;46421;48.610;9.334;2023-02-22T05:27:16;6.40;;;2.13;;
60588;SDS011;46421;48.610;9.334;2023-02-22T05:29:42;5.25;;;2.22;;
60588;SDS011;46421;48.610;9.334;2023-02-22T05:32:08;5.28;;;2.10;;
60588;SDS011;46421;48.610;9.334;2023-02-22T05:34:33;4.90;;;1.98;;
60588;SDS011;46421;48.610;9.334;2023-02-22T05:36:58;5.95;;;2.00;;
60588;SDS011;46421;48.610;9.334;2023-02-22T05:39:24;6.33;;;2.77;;
60588;SDS011;46421;48.610;9.334;2023-02-22T05:41:49;6.28;;;2.35;;
60588;SDS011;46421;48.610;9.334;2023-02-22T05:44:14;6.10;;;2.17;;
60588;SDS011;46421;48.610;9.334;2023-02-22T05:46:40;6.80;;;2.10;;
60588;SDS011;46421;48.610;9.334;2023-02-22T05:49:05;5.40;;;2.08;;
60588;SDS011;46421;48.610;9.334;2023-02-22T05:51:31;5.30;;;1.77;;
60588;SDS011;46421;48.610;9.334;2023-02-22T05:53:57;5.30;;;2.20;;
60588;SDS011;46421;48.610;9.334;2023-02-22T05:56:23;4.65;;;1.65;;
60588;SDS011;46421;48.610;9.334;2023-02-22T05:58:50;4.75;;;1.92;;
60588;SDS011;46421;48.610;9.334;2023-02-22T06:01:16;5.40;;;2.13;;
60588;SDS011;46421;48.610;9.334;2023-02-22T06:03:42;5.25;;;2.13;;
60588;SDS011;46421;48.610;9.334;2023-02-22T06:06:11;5.68;;;2.20;;
60588;SDS011;46421;48.610;9.334;2023-02-22T06:08:36;5.80;;;2.20;;
60588;SDS011;46421;48.610;9.334;2023-02-22T06:11:01;6.13;;;2.60;;
60588;SDS011;46421;48.610;9.334;2023-02-22T06:13:27;6.10;;;2.13;;
60588;SDS011;46421;48.610;9.334;2023-02-22T06:15:52;7.50;;;2.00;;
60588;SDS011;46421;48.610;9.334;2023-02-22T06:18:17;4.93;;;2.30;;
60588;SDS011;46421;48.610;9.334;2023-02-22T06:20:43;5.22;;;1.95;;
60588;SDS011;46421;48.610;9.334;2023-02-22T06:23:08;6.53;;;2.63;;
60588;SDS011;46421;48.610;9.334;2023-02-22T06:25:33;5.17;;;2.10;;
60588;SDS011;46421;48.610;9.334;2023-02-22T06:27:59;5.20;;;2.20;;
60588;SDS011;46421;48.610;9.334;2023-02-22T06:30:25;5.40;;;2.22;;
60588;SDS011;46421;48.610;9.334;2023-02-22T06:32:52;5.35;;;2.22;;
60588;SDS011;46421;48.610;9.334;2023-02-22T06:35:17;6.95;;;1.88;;
60588;SDS011;46421;48.610;9.334;2023-02-22T06:37:43;5.85;;;2.10;;
60588;SDS011;46421;48.610;9.334;2023-02-22T06:40:09;5.78;;;2.03;;
60588;SDS011;46421;48.610;9.334;2023-02-22T06:42:35;8.25;;;2.75;;
60588;SDS011;46421;48.610;9.334;2023-02-22T06:45:01;5.47;;;2.55;;
60588;SDS011;46421;48.610;9.334;2023-02-22T06:47:26;5.07;;;2.10;;
60588;SDS011;46421;48.610;9.334;2023-02-22T06:49:52;5.07;;;2.20;;
60588;SDS011;46421;48.610;9.334;2023-02-22T06:52:19;5.20;;;2.03;;
60588;SDS011;46421;48.610;9.334;2023-02-22T06:54:44;5.03;;;2.35;;
60588;SDS011;46421;48.610;9.334;2023-02-22T06:57:10;5.45;;;2.08;;
60588;SDS011;46421;48.610;9.334;2023-02-22T06:59:35;7.67;;;2.30;;
60588;SDS011;46421;48.610;9.334;2023-02-22T07:02:00;6.17;;;2.27;;
60588;SDS011;46421;48.610;9.334;2023-02-22T07:04:27;5.55;;;2.25;;
60588;SDS011;46421;48.610;9.334;2023-02-22T07:06:53;6.20;;;2.25;;
60588;SDS011;46421;48.610;9.334;2023-02-22T07:09:18;6.03;;;2.27;;
60588;SDS011;46421;48.610;9.334;2023-02-22T07:11:44;5.25;;;1.98;;
60588;SDS011;46421;48.610;9.334;2023-02-22T07:14:09;8.25;;;2.85;;
60588;SDS011;46421;48.610;9.334;2023-02-22T07:16:35;5.63;;;2.67;;
60588;SDS011;46421;48.610;9.334;2023-02-22T07:19:00;7.60;;;2.87;;
60588;SDS011;46421;48.610;9.334;2023-02-22T07:21:26;6.95;;;2.22;;
60588;SDS011;46421;48.610;9.334;2023-02-22T07:23:53;9.13;;;3.65;;
60588;SDS011;46421;48.610;9.334;2023-02-22T07:28:46;5.72;;;2.55;;
60588;SDS011;46421;48.610;9.334;2023-02-22T07:31:11;5.20;;;2.15;;
60588;SDS011;46421;48.610;9.334;2023-02-22T07:33:37;5.03;;;2.33;;
60588;SDS011;46421;48.610;9.334;2023-02-22T07:36:02;6.30;;;2.65;;
60588;SDS011;46421;48.610;9.334;2023-02-22T07:38:28;6.30;;;2.83;;
60588;SDS011;46421;48.610;9.334;2023-02-22T07:40:53;6.03;;;2.80;;
60588;SDS011;46421;48.610;9.334;2023-02-22T07:43:25;7.37;;;3.00;;
60588;SDS011;46421;48.610;9.334;2023-02-22T07:45:53;8.45;;;2.92;;
60588;SDS011;46421;48.610;9.334;2023-02-22T07:48:22;7.22;;;3.28;;
60588;SDS011;46421;48.610;9.334;2023-02-22T07:50:49;6.53;;;3.45;;
60588;SDS011;46421;48.610;9.334;2023-02-22T07:53:36;6.47;;;3.10;;
60588;SDS011;46421;48.610;9.334;2023-02-22T07:56:00;7.43;;;3.85;;
60588;SDS011;46421;48.610;9.334;2023-02-22T07:58:30;7.60;;;3.85;;
60588;SDS011;46421;48.610;9.334;2023-02-22T08:00:56;6.82;;;3.30;;
60588;SDS011;46421;48.610;9.334;2023-02-22T08:03:23;7.18;;;3.72;;
60588;SDS011;46421;48.610;9.334;2023-02-22T08:05:51;10.77;;;4.53;;
60588;SDS011;46421;48.610;9.334;2023-02-22T08:08:18;9.20;;;4.85;;
60588;SDS011;46421;48.610;9.334;2023-02-22T08:10:43;7.88;;;4.53;;
60588;SDS011;46421;48.610;9.334;2023-02-22T08:13:09;9.38;;;4.22;;
60588;SDS011;46421;48.610;9.334;2023-02-22T08:15:36;7.43;;;4.15;;
60588;SDS011;46421;48.610;9.334;2023-02-22T08:18:04;8.27;;;4.18;;
60588;SDS011;46421;48.610;9.334;2023-02-22T08:20:33;7.68;;;4.15;;
60588;SDS011;46421;48.610;9.334;2023-02-22T08:22:59;8.43;;;4.00;;
60588;SDS011;46421;48.610;9.334;2023-02-22T08:25:25;8.48;;;4.20;;
60588;SDS011;46421;48.610;9.334;2023-02-22T08:27:54;9.13;;;3.88;;
60588;SDS011;46421;48.610;9.334;2023-02-22T08:30:24;7.28;;;4.18;;
60588;SDS011;46421;48.610;9.334;2023-02-22T08:32:49;8.68;;;4.10;;
60588;SDS011;46421;48.610;9.334;2023-02-22T08:35:16;8.45;;;4.38;;
60588;SDS011;46421;48.610;9.334;2023-02-22T08:37:43;8.38;;;4.25;;
60588;SDS011;46421;48.610;9.334;2023-02-22T08:40:10;9.15;;;3.67;;
60588;SDS011;46421;48.610;9.334;2023-02-22T08:42:36;8.88;;;3.75;;
60588;SDS011;46421;48.610;9.334;2023-02-22T08:45:02;8.73;;;3.55;;
60588;SDS011;46421;48.610;9.334;2023-02-22T08:47:28;6.68;;;3.30;;
60588;SDS011;46421;48.610;9.334;2023-02-22T08:49:53;6.73;;;3.40;;
60588;SDS011;46421;48.610;9.334;2023-02-22T08:52:19;6.28;;;2.97;;
60588;SDS011;46421;48.610;9.334;2023-02-22T08:54:45;7.47;;;3.55;;
60588;SDS011;46421;48.610;9.334;2023-02-22T08:57:11;8.48;;;3.63;;
60588;SDS011;46421;48.610;9.334;2023-02-22T08:59:37;7.65;;;3.40;;
60588;SDS011;46421;48.610;9.334;2023-02-22T09:02:02;6.57;;;3.88;;
60588;SDS011;46421;48.610;9.334;2023-02-22T09:04:27;7.85;;;3.80;;
60588;SDS011;46421;48.610;9.334;2023-02-22T09:06:53;7.17;;;3.07;;
60588;SDS011;46421;48.610;9.334;2023-02-22T09:09:18;6.33;;;3.37;;
60588;SDS011;46421;48.610;9.334;2023-02-22T09:11:45;8.68;;;3.72;;
60588;SDS011;46421;48.610;9.334;2023-02-22T09:16:38;6.68;;;3.33;;
60588;SDS011;46421;48.610;9.334;2023-02-22T09:19:04;7.75;;;3.40;;
60588;SDS011;46421;48.610;9.334;2023-02-22T09:21:29;5.35;;;2.95;;
60588;SDS011;46421;48.610;9.334;2023-02-22T09:23:55;6.03;;;2.88;;
60588;SDS011;46421;48.610;9.334;2023-02-22T09:26:21;7.45;;;3.22;;
60588;SDS011;46421;48.610;9.334;2023-02-22T09:28:47;7.75;;;4.30;;
60588;SDS011;46421;48.610;9.334;2023-02-22T09:31:15;6.13;;;3.20;;
60588;SDS011;46421;48.610;9.334;2023-02-22T09:33:41;6.07;;;3.15;;
60588;SDS011;46421;48.610;9.334;2023-02-22T09:36:06;7.47;;;3.25;;
60588;SDS011;46421;48.610;9.334;2023-02-22T09:38:32;6.50;;;3.53;;
60588;SDS011;46421;48.610;9.334;2023-02-22T09:41:08;7.03;;;3.15;;
60588;SDS011;46421;48.610;9.334;2023-02-22T09:48:58;6.80;;;3.13;;
60588;SDS011;46421;48.610;9.334;2023-02-22T09:51:25;6.57;;;3.35;;
60588;SDS011;46421;48.610;9.334;2023-02-22T09:53:57;6.63;;;2.90;;
60588;SDS011;46421;48.610;9.334;2023-02-22T09:56:26;5.60;;;2.90;;
60588;SDS011;46421;48.610;9.334;2023-02-22T09:58:54;5.38;;;2.63;;
60588;SDS011;46421;48.610;9.334;2023-02-22T10:01:40;5.20;;;2.92;;
60588;SDS011;46421;48.610;9.334;2023-02-22T10:04:22;6.95;;;2.85;;
60588;SDS011;46421;48.610;9.334;2023-02-22T10:07:10;6.93;;;3.55;;
60588;SDS011;46421;48.610;9.334;2023-02-22T10:09:40;7.63;;;3.67;;
60588;SDS011;46421;48.610;9.334;2023-02-22T10:12:14;6.28;;;3.30;;
60588;SDS011;46421;48.610;9.334;2023-02-22T10:15:07;6.63;;;3.70;;
60588;SDS011;46421;48.610;9.334;2023-02-22T10:17:49;6.88;;;3.20;;
60588;SDS011;46421;48.610;9.334;2023-02-22T10:20:34;6.50;;;3.10;;
60588;SDS011;46421;48.610;9.334;2023-02-22T10:23:10;6.10;;;3.15;;
60588;SDS011;46421;48.610;9.334;2023-02-22T10:25:44;7.43;;;3.60;;
60588;SDS011;46421;48.610;9.334;2023-02-22T10:28:17;6.13;;;2.80;;
60588;SDS011;46421;48.610;9.334;2023-02-22T10:30:48;7.00;;;3.40;;
60588;SDS011;46421;48.610;9.334;2023-02-22T10:33:23;7.43;;;3.47;;
60588;SDS011;46421;48.610;9.334;2023-02-22T10:35:53;5.57;;;2.55;;
60588;SDS011;46421;48.610;9.334;2023-02-22T10:38:20;7.10;;;3.35;;
60588;SDS011;46421;48.610;9.334;2023-02-22T10:40:55;6.13;;;2.75;;
60588;SDS011;46421;48.610;9.334;2023-02-22T10:43:23;6.95;;;3.30;;
60588;SDS011;46421;48.610;9.334;2023-02-22T10:45:50;7.40;;;2.72;;
60588;SDS011;46421;48.610;9.334;2023-02-22T10:48:19;6.95;;;3.20;;
60588;SDS011;46421;48.610;9.334;2023-02-22T10:50:46;7.50;;;3.35;;
60588;SDS011;46421;48.610;9.334;2023-02-22T10:53:13;6.90;;;2.90;;
60588;SDS011;46421;48.610;9.334;2023-02-22T10:58:58;5.85;;;2.70;;
60588;SDS011;46421;48.610;9.334;2023-02-22T11:03:55;6.78;;;3.00;;
60588;SDS011;46421;48.610;9.334;2023-02-22T11:06:22;6.25;;;3.10;;
60588;SDS011;46421;48.610;9.334;2023-02-22T11:08:47;5.55;;;2.70;;
60588;SDS011;46421;48.610;9.334;2023-02-22T11:11:23;5.75;;;2.88;;
60588;SDS011;46421;48.610;9.334;2023-02-22T11:13:55;7.15;;;3.15;;
60588;SDS011;46421;48.610;9.334;2023-02-22T11:16:31;6.70;;;2.85;;
60588;SDS011;46421;48.610;9.334;2023-02-22T11:24:04;5.85;;;3.03;;
60588;SDS011;46421;48.610;9.334;2023-02-22T11:26:37;7.20;;;3.50;;
60588;SDS011;46421;48.610;9.334;2023-02-22T11:29:08;8.82;;;3.72;;
60588;SDS011;46421;48.610;9.334;2023-02-22T11:31:43;8.52;;;3.72;;
60588;SDS011;46421;48.610;9.334;2023-02-22T11:37:14;10.95;;;4.55;;
60588;SDS011;46421;48.610;9.334;2023-02-22T11:39:46;9.05;;;4.05;;
60588;SDS011;46421;48.610;9.334;2023-02-22T11:42:25;10.80;;;4.78;;
60588;SDS011;46421;48.610;9.334;2023-02-22T11:52:49;10.48;;;4.85;;
60588;SDS011;46421;48.610;9.334;2023-02-22T12:00:52;9.25;;;4.70;;
60588;SDS011;46421;48.610;9.334;2023-02-22T12:03:37;7.70;;;4.03;;
60588;SDS011;46421;48.610;9.334;2023-02-22T12:20:27;7.68;;;4.30;;
60588;SDS011;46421;48.610;9.334;2023-02-22T12:25:37;8.77;;;3.45;;
60588;SDS011;46421;48.610;9.334;2023-02-22T12:28:18;9.30;;;3.72;;
60588;SDS011;46421;48.610;9.334;2023-02-22T12:30:50;9.43;;;3.80;;
60588;SDS011;46421;48.610;9.334;2023-02-22T12:33:26;7.50;;;3.13;;
60588;SDS011;46421;48.610;9.334;2023-02-22T12:35:58;8.88;;;4.03;;
60588;SDS011;46421;48.610;9.334;2023-02-22T12:38:33;7.03;;;3.40;;
60588;SDS011;46421;48.610;9.334;2023-02-22T12:41:08;8.80;;;3.22;;
60588;SDS011;46421;48.610;9.334;2023-02-22T12:43:47;8.85;;;3.80;;
60588;SDS011;46421;48.610;9.334;2023-02-22T12:46:23;9.00;;;3.55;;
60588;SDS011;46421;48.610;9.334;2023-02-22T12:51:50;7.85;;;3.75;;
60588;SDS011;46421;48.610;9.334;2023-02-22T12:59:40;7.18;;;3.95;;
60588;SDS011;46421;48.610;9.334;2023-02-22T13:04:55;7.85;;;3.67;;
60588;SDS011;46421;48.610;9.334;2023-02-22T13:13:20;10.25;;;3.97;;
60588;SDS011;46421;48.610;9.334;2023-02-22T13:24:18;8.95;;;3.42;;
60588;SDS011;46421;48.610;9.334;2023-02-22T13:26:51;9.73;;;3.90;;
60588;SDS011;46421;48.610;9.334;2023-02-22T13:29:23;8.70;;;4.20;;
60588;SDS011;46421;48.610;9.334;2023-02-22T13:32:09;9.40;;;3.95;;
60588;SDS011;46421;48.610;9.334;2023-02-22T13:37:39;8.50;;;3.80;;
60588;SDS011;46421;48.610;9.334;2023-02-22T13:43:24;9.95;;;3.40;;
60588;SDS011;46421;48.610;9.334;2023-02-22T13:49:12;8.88;;;3.90;;
60588;SDS011;46421;48.610;9.334;2023-02-22T13:51:46;9.10;;;3.78;;
60588;SDS011;46421;48.610;9.334;2023-02-22T13:54:16;11.20;;;3.78;;
60588;SDS011;46421;48.610;9.334;2023-02-22T13:56:47;8.60;;;3.72;;
60588;SDS011;46421;48.610;9.334;2023-02-22T13:59:21;7.90;;;3.67;;
60588;SDS011;46421;48.610;9.334;2023-02-22T14:01:49;7.18;;;3.65;;
60588;SDS011;46421;48.610;9.334;2023-02-22T14:04:39;8.63;;;3.65;;
60588;SDS011;46421;48.610;9.334;2023-02-22T14:09:49;10.40;;;4.07;;
60588;SDS011;46421;48.610;9.334;2023-02-22T14:17:34;10.45;;;3.60;;
60588;SDS011;46421;48.610;9.334;2023-02-22T14:22:48;7.55;;;3.35;;
60588;SDS011;46421;48.610;9.334;2023-02-22T14:25:33;9.10;;;3.90;;
60588;SDS011;46421;48.610;9.334;2023-02-22T14:27:58;8.85;;;3.90;;
60588;SDS011;46421;48.610;9.334;2023-02-22T14:30:27;8.27;;;3.95;;
60588;SDS011;46421;48.610;9.334;2023-02-22T14:32:57;9.30;;;4.03;;
60588;SDS011;46421;48.610;9.334;2023-02-22T14:35:24;9.15;;;3.90;;
60588;SDS011;46421;48.610;9.334;2023-02-22T14:37:56;7.63;;;3.92;;
60588;SDS011;46421;48.610;9.334;2023-02-22T14:40:25;11.48;;;4.88;;
60588;SDS011;46421;48.610;9.334;2023-02-22T14:43:00;10.30;;;3.95;;
60588;SDS011;46421;48.610;9.334;2023-02-22T14:45:33;9.02;;;4.30;;
60588;SDS011;46421;48.610;9.334;2023-02-22T14:48:25;9.20;;;3.65;;
60588;SDS011;46421;48.610;9.334;2023-02-22T14:51:03;11.65;;;4.43;;
60588;SDS011;46421;48.610;9.334;2023-02-22T14:53:42;11.27;;;4.13;;
60588;SDS011;46421;48.610;9.334;2023-02-22T14:56:15;10.55;;;4.90;;
60588;SDS011;46421;48.610;9.334;2023-02-22T15:01:37;11.30;;;4.32;;
60588;SDS011;46421;48.610;9.334;2023-02-22T15:06:58;8.63;;;4.13;;
60588;SDS011;46421;48.610;9.334;2023-02-22T15:09:26;9.60;;;4.25;;
60588;SDS011;46421;48.610;9.334;2023-02-22T15:14:28;9.88;;;4.13;;
60588;SDS011;46421;48.610;9.334;2023-02-22T15:17:03;12.75;;;4.53;;
60588;SDS011;46421;48.610;9.334;2023-02-22T15:19:33;11.93;;;4.63;;
60588;SDS011;46421;48.610;9.334;2023-02-22T15:22:03;9.68;;;4.47;;
60588;SDS011;46421;48.610;9.334;2023-02-22T15:24:33;10.45;;;4.65;;
60588;SDS011;46421;48.610;9.334;2023-02-22T15:27:04;16.08;;;5.60;;
60588;SDS011;46421;48.610;9.334;2023-02-22T15:29:42;10.25;;;3.90;;
60588;SDS011;46421;48.610;9.334;2023-02-22T15:35:14;9.77;;;3.85;;
60588;SDS011;46421;48.610;9.334;2023-02-22T15:37:43;10.48;;;4.53;;
60588;SDS011;46421;48.610;9.334;2023-02-22T15:40:14;9.32;;;4.07;;
60588;SDS011;46421;48.610;9.334;2023-02-22T15:42:42;9.98;;;3.72;;
60588;SDS011;46421;48.610;9.334;2023-02-22T15:45:12;10.32;;;4.10;;
60588;SDS011;46421;48.610;9.334;2023-02-22T15:47:40;6.90;;;3.03;;
60588;SDS011;46421;48.610;9.334;2023-02-22T15:50:21;9.48;;;4.20;;
60588;SDS011;46421;48.610;9.334;2023-02-22T15:53:03;11.82;;;4.07;;
60588;SDS011;46421;48.610;9.334;2023-02-22T15:55:33;12.32;;;4.05;;
60588;SDS011;46421;48.610;9.334;2023-02-22T16:00:59;9.13;;;4.18;;
60588;SDS011;46421;48.610;9.334;2023-02-22T16:03:44;14.15;;;4.65;;
60588;SDS011;46421;48.610;9.334;2023-02-22T16:06:29;11.57;;;4.32;;
60588;SDS011;46421;48.610;9.334;2023-02-22T16:12:21;10.50;;;3.47;;
60588;SDS011;46421;48.610;9.334;2023-02-22T16:14:51;9.95;;;4.13;;
60588;SDS011;46421;48.610;9.334;2023-02-22T16:17:24;10.43;;;4.30;;
60588;SDS011;46421;48.610;9.334;2023-02-22T16:20:27;9.05;;;4.32;;
60588;SDS011;46421;48.610;9.334;2023-02-22T16:22:46;10.90;;;4.38;;
60588;SDS011;46421;48.610;9.334;2023-02-22T16:27:52;11.73;;;4.43;;
60588;SDS011;46421;48.610;9.334;2023-02-22T16:30:25;8.43;;;4.15;;
60588;SDS011;46421;48.610;9.334;2023-02-22T16:32:54;9.63;;;3.88;;
60588;SDS011;46421;48.610;9.334;2023-02-22T16:35:25;11.48;;;4.03;;
60588;SDS011;46421;48.610;9.334;2023-02-22T16:37:59;9.00;;;3.85;;
60588;SDS011;46421;48.610;9.334;2023-02-22T16:42:56;10.02;;;3.75;;
60588;SDS011;46421;48.610;9.334;2023-02-22T16:45:21;11.02;;;3.72;;
60588;SDS011;46421;48.610;9.334;2023-02-22T16:47:47;8.33;;;3.90;;
60588;SDS011;46421;48.610;9.334;2023-02-22T16:50:17;9.07;;;3.92;;
60588;SDS011;46421;48.610;9.334;2023-02-22T16:52:43;9.88;;;3.92;;
60588;SDS011;46421;48.610;9.334;2023-02-22T16:55:10;12.30;;;4.10;;
60588;SDS011;46421;48.610;9.334;2023-02-22T16:57:38;8.32;;;4.15;;
60588;SDS011;46421;48.610;9.334;2023-02-22T17:00:06;9.85;;;4.55;;
60588;SDS011;46421;48.610;9.334;2023-02-22T17:02:37;10.15;;;4.32;;
60588;SDS011;46421;48.610;9.334;2023-02-22T17:05:03;11.80;;;4.78;;
60588;SDS011;46421;48.610;9.334;2023-02-22T17:07:28;11.25;;;4.53;;
60588;SDS011;46421;48.610;9.334;2023-02-22T17:09:55;12.93;;;4.82;;
60588;SDS011;46421;48.610;9.334;2023-02-22T17:12:22;10.65;;;3.90;;
60588;SDS011;46421;48.610;9.334;2023-02-22T17:14:48;12.32;;;4.20;;
60588;SDS011;46421;48.610;9.334;2023-02-22T17:17:14;7.97;;;4.30;;
60588;SDS011;46421;48.610;9.334;2023-02-22T17:19:39;12.02;;;4.28;;
60588;SDS011;46421;48.610;9.334;2023-02-22T17:22:05;9.32;;;3.80;;
60588;SDS011;46421;48.610;9.334;2023-02-22T17:24:33;13.02;;;4.07;;
60588;SDS011;46421;48.610;9.334;2023-02-22T17:26:59;9.02;;;4.20;;
60588;SDS011;46421;48.610;9.334;2023-02-22T17:29:25;12.32;;;4.97;;
60588;SDS011;46421;48.610;9.334;2023-02-22T17:31:52;13.20;;;5.85;;
60588;SDS011;46421;48.610;9.334;2023-02-22T17:34:18;12.00;;;5.43;;
60588;SDS011;46421;48.610;9.334;2023-02-22T17:36:44;13.23;;;5.07;;
60588;SDS011;46421;48.610;9.334;2023-02-22T17:39:09;12.48;;;5.65;;
60588;SDS011;46421;48.610;9.334;2023-02-22T17:41:35;12.52;;;5.13;;
60588;SDS011;46421;48.610;9.334;2023-02-22T17:44:01;15.07;;;5.70;;